Miki Honda

Chefscout - Sagan Tosu
3 Apr 2027
Samstag
Verarbeitung

Persönlichkeit

Anpassungsfähigkeit (3) Ehrgeiz (14) Kontroverse (2) Loyalität (2) Druck (17) Professionalität (9) Fairness (12) Temperament (11)

Profil

Trainerstil Demokratisch
Lizenz Nationale A
Entschlossenheit 8
Menschenführung 8
Motivation 6
Disziplin 11
Arbeitszufriedenheit
96%
Ermüdung
0%
Rolle Chefscout
Gehalt 15.3K p/W
Vertrag 14.03.2028

Leistung

Verhalten Gut
Trainingseffektivität
40%
Spielerentwicklung
60%
Verletzungsprävention
20%
Taktische Umsetzung
40%

Letzte Ereignisse

Nahm an einer Scouting-Besprechung teil jetzt
Nahm an einer Scouting-Besprechung teil jetzt
Empfahl ein Transferziel jetzt
Empfahl ein Transferziel jetzt
Empfahl ein Transferziel jetzt
Nahm an einer Scouting-Besprechung teil jetzt
Nahm an einer Scouting-Besprechung teil 7T her
Nahm an einer Scouting-Besprechung teil 7T her

Aktuell beobachtet

88
Spieler Verein Status Fähigkeit Vertrauen Beobachtet Zuletzt beobachtet Letzte Stimme
Ciprian Coman Pandurii Verhandlung 114 / 125 66% 1 05.01.2027 Befürworten
Akinkunmi Amoo Ismaily Verhandlung 117 / 119 66% 1 05.01.2027 Befürworten
Razvan Puscas Astra Verloren 115 / 115 66% 1 05.01.2027 Befürworten
Arbër Zeneli IF Elfsborg Bericht bereit 113 / 113 66% 1 05.01.2027 Befürworten
Amos Inusah Wa All Stars Aktiv 117 / 117 40% 1 04.01.2027 -
Alexandr Sojka Viktoria Plzen Aktiv 116 / 133 40% 1 04.01.2027 -
Emmanuel Boateng Hapoel Tel Aviv Aktiv 121 / 125 40% 1 04.01.2027 -
Angelo Gattermayer Wolfsberger AC Aktiv 119 / 112 40% 1 02.01.2027 Mehr Infos nötig
Irakly Manelov Baltika Aktiv 116 / 103 40% 1 02.01.2027 -
Dale Taylor Blackpool Aktiv 107 / 119 40% 1 02.01.2027 -
Tomás O'Connor Gimnasia y Esgrima Aktiv 124 / 131 40% 7 01.01.2027 -
Daniel Phillips Stevenage Aktiv 115 / 112 40% 2 01.01.2027 -
Kelly Saravanan Salford City Aktiv 102 / 113 40% 1 01.01.2027 -
Armando Dobra Chesterfield Aktiv 101 / 112 40% 2 31.12.2026 -
Peter Federico Gornik Zabrze Aktiv 134 / 117 40% 1 31.12.2026 -
Josh Neufville Bradford City Aktiv 103 / 111 40% 1 31.12.2026 -
Michal Kohút Banik Ostrava Aktiv 139 / 115 40% 4 28.12.2026 -
Merchas Doski Viktoria Plzen Aktiv 114 / 134 40% 1 28.12.2026 -
Solomon John Mlada Boleslav Aktiv 107 / 102 40% 3 27.12.2026 -
Kyreece Lisbie Colchester United Aktiv 111 / 119 40% 1 27.12.2026 -
Artem Slesar Zorya Aktiv 109 / 115 40% 1 27.12.2026 -
Juan Pablo Gallego Fehervar Aktiv 98 / 106 40% 3 26.12.2026 -
Jhonier Hurtado Vorskla Aktiv 99 / 101 40% 1 26.12.2026 -
Diego Valencia Gornik Leczna Aktiv 109 / 124 40% 4 25.12.2026 -
Darragh Burns Grimsby Town Aktiv 107 / 106 40% 3 25.12.2026 -
Noah Ganaus OB Aktiv 114 / 111 40% 2 25.12.2026 -
David Buchta Radnicki 1923 Aktiv 115 / 125 40% 1 24.12.2026 -
Ten Miyagi Molde Aktiv 129 / 119 40% 3 23.12.2026 Beobachten
Fábio Tavares Newport County Aktiv 93 / 88 40% 1 23.12.2026 -
Charlie Webster Burton Albion Aktiv 112 / 124 40% 2 21.12.2026 -
Daniel Kyerewaa Reading Aktiv 107 / 104 40% 3 21.12.2026 -
Jack Currie Oxford United Aktiv 115 / 115 40% 2 21.12.2026 -
Jerónimo Porto Lapegüe Slask Aktiv 110 / 98 40% 2 20.12.2026 -
Dijon Kameri Cracovia Aktiv 119 / 131 40% 1 20.12.2026 -
Mauro Rodrigues Botev Plovdiv Aktiv 104 / 113 40% 2 19.12.2026 -
Kornelius Hansen Aalborg Aktiv 115 / 101 40% 1 16.12.2026 -
Dimitar Mitrovski Olimpija Ljubljana Aktiv 104 / 111 40% 1 16.12.2026 -
Siyanda Ndlovu Hearts of Oak Aktiv 115 / 112 40% 3 14.12.2026 -
Johnly Yfeko Exeter City Aktiv 115 / 103 40% 1 14.12.2026 -
Felipe Fernández Vorskla Aktiv 112 / 100 40% 1 13.12.2026 -
Yehor Tverdokhlib LNZ Aktiv 112 / 107 40% 1 13.12.2026 -
Ben Wiles Milton Keynes Dons Aktiv 106 / 100 40% 1 12.12.2026 -
Tomáš Zlatohlávek Teplice Aktiv 124 / 107 40% 1 12.12.2026 -
Ramiro Hernandes Belgrano Aktiv 123 / 122 40% 2 08.12.2026 Mehr Infos nötig
Junior Quitirna Wycombe Wanderers Aktiv 108 / 104 40% 1 08.12.2026 -
Mariano Bracamonte Deportivo Riestra Aktiv 126 / 122 40% 1 08.12.2026 Mehr Infos nötig
Tornike Morchiladze HNK Rijeka Aktiv 107 / 102 40% 3 06.12.2026 -
Phoenix Patterson Stevenage Aktiv 109 / 98 40% 1 05.12.2026 -
Andrei Cordea CFR Cluj Aktiv 130 / 124 40% 1 05.12.2026 -
Filip Szymczak Zaglebie Aktiv 108 / 110 40% 2 04.12.2026 -
Juan Carlos Pineda Beroe Aktiv 115 / 114 40% 1 04.12.2026 -
Marko Brest Olimpija Ljubljana Aktiv 109 / 126 40% 1 03.12.2026 -
Prestige Mboungou TSC Aktiv 117 / 112 40% 1 01.12.2026 -
Kane Wilson Milton Keynes Dons Aktiv 120 / 116 40% 1 30.11.2026 -
Matyáš Kozák Teplice Aktiv 114 / 114 40% 1 30.11.2026 -
Manuel Duarte Barracas Central Aktiv 125 / 126 40% 2 29.11.2026 -
Agustín Ramírez Inter Aktiv 110 / 104 40% 3 28.11.2026 -
Robert Petkovic Zadar Aktiv 134 / 135 40% 2 26.11.2026 -
Carlos Gutiérrez Montana Aktiv 115 / 95 40% 1 26.11.2026 -
Aarón Molinas Defensa y Justicia Aktiv 124 / 132 40% 3 25.11.2026 -
Pablo García Gijón Aktiv 110 / 114 40% 1 25.11.2026 -
Mads Frøkjær Brondby Aktiv 112 / 110 40% 2 24.11.2026 -
Ibrahim Tarek Masr El Makasa Aktiv 124 / 129 40% 1 22.11.2026 -
Rodrigo González Aldosivi Aktiv 114 / 119 40% 1 17.11.2026 -
Joaquín Gho Argentinos Juniors Aktiv 122 / 117 40% 1 17.11.2026 -
Shu Morooka Avispa Fukuoka Aktiv 111 / 109 40% 1 16.11.2026 -
Nail Omerović NK Osijek Aktiv 104 / 109 40% 1 15.11.2026 -
Yuta Goke Vissel Kobe Aktiv 124 / 129 40% 1 15.11.2026 -
Kein Sato FC Tokyo Aktiv 131 / 134 40% 3 11.11.2026 -
Adrián Sánchez Belgrano Aktiv 119 / 130 40% 1 11.11.2026 -
Matías Fernández Independiente Rivadavia Aktiv 122 / 111 40% 1 10.11.2026 -
Yota Komi Kashiwa Reysol Aktiv 125 / 125 40% 1 09.11.2026 -
Conrad Wallem Valerenga Aktiv 139 / 125 40% 1 09.11.2026 -
Ştefan Baiaram Universitatea Craiova Aktiv 113 / 136 40% 1 08.11.2026 -
Tyrese Shade Burton Albion Aktiv 107 / 99 40% 1 08.11.2026 -
Juan Bezerra Zamalek Aktiv 119 / 111 40% 2 07.11.2026 Mehr Infos nötig
Danilo Gomes Albirex Niigata Aktiv 107 / 119 40% 1 06.11.2026 -
Evangelos Patoulidis Sandefjord Aktiv 121 / 125 40% 1 05.11.2026 -
Sead Hakšabanović Malmo FF Aktiv 122 / 106 40% 1 05.11.2026 -
Ibrahim Cissoko Zwolle Aktiv 114 / 120 40% 1 03.11.2026 -
Adalberto Peñaranda Deportivo Tachira Aktiv 106 / 117 40% 2 13.08.2026 -
Hiroto Yamada Shonan Bellmare Aktiv 97 / 111 40% 1 13.08.2026 -
Leo Ceara Kashima Antlers Aktiv 140 / 131 40% 3 10.08.2026 -
Werik Popo Avispa Fukuoka Aktiv 107 / 100 40% 1 10.08.2026 -
Walter González Sportivo Luqueno Aktiv 108 / 108 40% 1 10.08.2026 -
Edwuin Cetré Estudiantes Aktiv 123 / 116 40% 1 02.08.2026 -
Liam Cullen Swansea City Aktiv 117 / 115 40% 1 01.08.2026 -
Elliot Lee Wrexham Aktiv 119 / 113 40% 1 01.08.2026 -